createdAt,value
2022-10-17T00:00:34.875Z,11.60
2022-10-17T00:03:02.163Z,11.50
2022-10-17T00:05:29.060Z,11.50
2022-10-17T00:07:56.062Z,11.50
2022-10-17T00:10:23.005Z,11.50
2022-10-17T00:12:51.732Z,11.40
2022-10-17T00:15:20.041Z,11.40
2022-10-17T00:17:46.938Z,11.40
2022-10-17T00:20:14.836Z,11.40
2022-10-17T00:22:41.785Z,11.40
2022-10-17T00:25:09.295Z,11.30
2022-10-17T00:27:37.852Z,11.30
2022-10-17T00:30:06.266Z,11.30
2022-10-17T00:32:33.465Z,11.30
2022-10-17T00:35:00.503Z,11.30
2022-10-17T00:37:27.495Z,11.20
2022-10-17T00:39:54.551Z,11.20
2022-10-17T00:42:21.759Z,11.10
2022-10-17T00:44:48.623Z,11.10
2022-10-17T00:47:19.677Z,11.10
2022-10-17T00:49:47.485Z,11.10
2022-10-17T00:52:26.961Z,11.00
2022-10-17T00:55:02.522Z,10.90
2022-10-17T00:57:31.731Z,10.80
2022-10-17T01:00:00.774Z,10.80
2022-10-17T01:02:27.969Z,10.80
2022-10-17T01:04:59.550Z,10.70
2022-10-17T01:07:31.914Z,10.70
2022-10-17T01:10:02.255Z,10.60
2022-10-17T01:12:37.864Z,10.50
2022-10-17T01:15:33.496Z,10.50
2022-10-17T01:18:27.426Z,10.40
2022-10-17T01:21:05.562Z,10.40
2022-10-17T01:23:50.274Z,10.30
2022-10-17T01:26:47.942Z,10.30
2022-10-17T01:29:33.390Z,10.20
2022-10-17T01:32:14.072Z,10.10
2022-10-17T01:34:59.666Z,10.10
2022-10-17T01:37:29.313Z,10.00
2022-10-17T01:40:30.096Z,10.00
2022-10-17T01:43:03.958Z,9.90
2022-10-17T01:45:42.981Z,9.90
2022-10-17T01:48:17.636Z,9.90
2022-10-17T01:50:56.969Z,9.90
2022-10-17T01:53:33.269Z,9.80
2022-10-17T01:56:03.209Z,9.80
2022-10-17T01:58:42.291Z,9.70
2022-10-17T02:01:11.938Z,9.70
2022-10-17T02:03:41.136Z,9.70
2022-10-17T02:06:08.069Z,9.80
2022-10-17T02:08:46.848Z,9.80
2022-10-17T02:11:18.584Z,9.80
2022-10-17T02:14:03.497Z,9.80
2022-10-17T02:16:40.808Z,9.80
2022-10-17T02:19:50.498Z,9.80
2022-10-17T02:22:40.136Z,9.80
2022-10-17T02:25:06.966Z,9.80
2022-10-17T02:27:55.981Z,9.90
2022-10-17T02:30:40.597Z,9.80
2022-10-17T02:33:16.762Z,9.80
2022-10-17T02:35:54.822Z,9.80
2022-10-17T02:38:23.090Z,9.80
2022-10-17T02:40:53.084Z,9.80
2022-10-17T02:43:20.687Z,9.80
2022-10-17T02:45:48.775Z,9.70
2022-10-17T02:48:40.441Z,9.70
2022-10-17T02:51:37.089Z,9.70
2022-10-17T02:54:24.281Z,9.70
2022-10-17T02:56:55.616Z,9.70
2022-10-17T02:59:24.996Z,9.70
2022-10-17T03:01:52.636Z,9.80
2022-10-17T03:04:19.934Z,9.80
2022-10-17T03:06:48.357Z,9.90
2022-10-17T03:09:15.884Z,9.90
2022-10-17T03:11:42.817Z,9.90
2022-10-17T03:14:09.798Z,9.80
2022-10-17T03:16:36.721Z,9.70
2022-10-17T03:19:03.871Z,9.70
2022-10-17T03:21:30.868Z,9.70
2022-10-17T03:23:57.765Z,9.70
2022-10-17T03:26:24.732Z,9.60
2022-10-17T03:28:53.692Z,9.60
2022-10-17T03:31:22.313Z,9.60
2022-10-17T03:33:49.194Z,9.60
2022-10-17T03:36:18.445Z,9.60
2022-10-17T03:38:45.462Z,9.60
2022-10-17T03:41:12.764Z,9.60
2022-10-17T03:43:39.997Z,9.50
2022-10-17T03:46:07.561Z,9.50
2022-10-17T03:48:34.711Z,9.60
2022-10-17T03:51:02.547Z,9.70
2022-10-17T03:53:29.479Z,9.70
2022-10-17T03:55:56.971Z,9.70
2022-10-17T03:58:23.935Z,9.70
2022-10-17T04:00:50.949Z,9.70
2022-10-17T04:03:17.891Z,9.80
2022-10-17T04:05:44.782Z,9.80
2022-10-17T04:08:11.696Z,9.90
2022-10-17T04:10:38.628Z,9.90
2022-10-17T04:13:06.530Z,9.90
2022-10-17T04:15:33.462Z,10.00
2022-10-17T04:18:00.371Z,10.00
2022-10-17T04:20:27.306Z,9.90
2022-10-17T04:22:54.169Z,10.00
2022-10-17T04:25:21.133Z,10.00
2022-10-17T04:27:49.136Z,10.00
2022-10-17T04:30:16.774Z,10.00
2022-10-17T04:32:43.678Z,10.00
2022-10-17T04:35:10.638Z,9.90
2022-10-17T04:37:37.631Z,9.90
2022-10-17T04:40:04.873Z,9.80
2022-10-17T04:42:32.098Z,9.80
2022-10-17T04:44:59.198Z,9.80
2022-10-17T04:47:26.177Z,9.70
2022-10-17T04:49:53.110Z,9.70
2022-10-17T04:52:20.049Z,9.70
2022-10-17T04:54:46.976Z,9.70
2022-10-17T04:57:14.483Z,9.60
2022-10-17T04:59:41.385Z,9.50
2022-10-17T05:02:08.429Z,9.50
2022-10-17T05:04:35.411Z,9.50
2022-10-17T05:07:02.413Z,9.50
2022-10-17T05:09:29.453Z,9.50
2022-10-17T05:11:56.385Z,9.40
2022-10-17T05:14:23.308Z,9.40
2022-10-17T05:16:50.216Z,9.40
2022-10-17T05:19:18.555Z,9.50
2022-10-17T05:21:45.470Z,9.50
2022-10-17T05:24:14.719Z,9.50
2022-10-17T05:26:41.610Z,9.50
2022-10-17T05:29:08.747Z,9.50
2022-10-17T05:31:35.841Z,9.60
2022-10-17T05:34:03.756Z,9.60
2022-10-17T05:36:30.891Z,9.50
2022-10-17T05:38:57.844Z,9.50
2022-10-17T05:41:24.723Z,9.60
2022-10-17T05:43:51.655Z,9.60
2022-10-17T05:46:18.577Z,9.60
2022-10-17T05:48:45.474Z,9.70
2022-10-17T05:51:12.745Z,9.70
2022-10-17T05:53:49.997Z,9.70
2022-10-17T05:56:17.078Z,9.80
2022-10-17T05:58:50.229Z,9.90
2022-10-17T06:01:17.749Z,10.00
2022-10-17T06:03:44.683Z,10.20
2022-10-17T06:06:13.734Z,10.50
2022-10-17T06:08:41.050Z,10.80
2022-10-17T06:11:10.265Z,11.20
2022-10-17T06:13:38.434Z,11.60
2022-10-17T06:16:05.988Z,11.90
2022-10-17T06:18:33.435Z,12.10
2022-10-17T06:21:14.832Z,12.40
2022-10-17T06:23:41.724Z,12.70
2022-10-17T06:26:09.242Z,13.00
2022-10-17T06:28:36.630Z,13.30
2022-10-17T06:31:12.841Z,13.40
2022-10-17T06:33:40.037Z,13.40
2022-10-17T06:36:08.380Z,13.60
2022-10-17T06:38:35.737Z,13.80
2022-10-17T06:41:14.623Z,13.80
2022-10-17T06:43:46.451Z,13.80
2022-10-17T06:46:15.096Z,14.00
2022-10-17T06:48:42.079Z,14.20
2022-10-17T06:51:12.265Z,14.20
2022-10-17T06:53:55.484Z,13.90
2022-10-17T06:56:24.065Z,13.60
2022-10-17T06:58:52.981Z,13.40
2022-10-17T07:01:19.870Z,13.30
2022-10-17T07:03:50.075Z,13.30
2022-10-17T07:06:18.118Z,13.10
2022-10-17T07:08:46.113Z,13.00
2022-10-17T07:11:16.315Z,12.80
2022-10-17T07:13:43.840Z,12.80
2022-10-17T07:16:11.564Z,13.00
2022-10-17T07:18:38.864Z,13.20
2022-10-17T07:21:06.206Z,13.40
2022-10-17T07:23:36.618Z,13.40
2022-10-17T07:26:07.417Z,13.60
2022-10-17T07:28:39.538Z,13.70
2022-10-17T07:31:14.941Z,13.90
2022-10-17T07:33:42.750Z,14.00
2022-10-17T07:36:10.146Z,14.00
2022-10-17T07:38:37.756Z,14.00
2022-10-17T07:41:06.741Z,14.10
2022-10-17T07:43:34.747Z,14.00
2022-10-17T07:46:02.569Z,13.80
2022-10-17T07:48:30.072Z,13.60
2022-10-17T07:50:57.019Z,13.50
2022-10-17T07:53:24.033Z,13.40
2022-10-17T07:55:51.485Z,13.50
2022-10-17T07:58:18.475Z,13.40
2022-10-17T08:00:48.606Z,13.40
2022-10-17T08:03:15.740Z,13.30
2022-10-17T08:05:49.858Z,13.30
2022-10-17T08:08:16.781Z,13.30
2022-10-17T08:10:43.758Z,13.40
2022-10-17T08:13:10.651Z,13.40
2022-10-17T08:15:39.009Z,13.50
2022-10-17T08:18:05.995Z,13.60
2022-10-17T08:20:39.018Z,13.60
2022-10-17T08:23:06.076Z,13.70
2022-10-17T08:25:33.539Z,13.80
2022-10-17T08:28:00.475Z,13.80
2022-10-17T08:30:27.501Z,13.90
2022-10-17T08:32:56.136Z,13.90
2022-10-17T08:35:23.887Z,13.90
2022-10-17T08:37:50.865Z,13.90
2022-10-17T08:40:22.528Z,13.90
2022-10-17T08:43:17.437Z,13.90
2022-10-17T08:46:03.221Z,14.00
2022-10-17T08:48:34.168Z,14.00
2022-10-17T08:51:03.486Z,14.00
2022-10-17T08:53:33.349Z,14.00
2022-10-17T08:56:19.561Z,14.10
2022-10-17T08:58:47.470Z,14.10
2022-10-17T09:01:32.476Z,14.00
2022-10-17T09:04:27.006Z,14.00
2022-10-17T09:07:12.507Z,14.00
2022-10-17T09:10:07.481Z,14.00
2022-10-17T09:12:40.560Z,13.90
2022-10-17T09:15:32.676Z,14.00
2022-10-17T09:18:13.041Z,14.10
2022-10-17T09:20:47.777Z,14.10
2022-10-17T09:23:21.641Z,14.00
2022-10-17T09:25:53.355Z,14.10
2022-10-17T09:28:38.601Z,14.10
2022-10-17T09:31:22.438Z,14.30
2022-10-17T09:33:55.075Z,14.40
2022-10-17T09:36:37.260Z,14.50
2022-10-17T09:39:14.648Z,14.50
2022-10-17T09:44:42.863Z,14.70
2022-10-17T09:47:28.970Z,14.80
2022-10-17T09:49:56.159Z,14.80
2022-10-17T09:52:34.226Z,14.80
2022-10-17T09:55:01.194Z,14.80
2022-10-17T09:57:28.403Z,14.80
2022-10-17T10:00:05.148Z,14.80
2022-10-17T10:02:36.403Z,14.80
2022-10-17T10:05:16.992Z,14.80
2022-10-17T10:08:00.436Z,14.80
2022-10-17T10:10:29.123Z,14.90
2022-10-17T10:13:25.715Z,14.90
2022-10-17T10:15:53.044Z,15.10
2022-10-17T10:18:25.767Z,15.20
2022-10-17T10:21:17.554Z,15.20
2022-10-17T10:24:02.432Z,15.20
2022-10-17T10:26:36.291Z,15.20
2022-10-17T10:29:18.993Z,15.30
2022-10-17T10:31:46.961Z,15.30
2022-10-17T10:34:28.215Z,15.20
2022-10-17T10:37:01.296Z,15.30
2022-10-17T10:39:29.100Z,15.30
2022-10-17T10:41:56.435Z,15.30
2022-10-17T10:44:26.392Z,15.40
2022-10-17T10:47:15.794Z,15.50
2022-10-17T10:49:43.944Z,15.60
2022-10-17T10:52:27.705Z,15.70
2022-10-17T10:55:03.756Z,15.70
2022-10-17T10:57:34.952Z,15.80
2022-10-17T11:00:09.135Z,15.70
2022-10-17T11:02:41.935Z,15.80
2022-10-17T11:05:30.578Z,15.80
2022-10-17T11:08:25.787Z,15.80
2022-10-17T11:11:26.251Z,15.70
2022-10-17T11:14:25.634Z,15.80
2022-10-17T11:17:03.193Z,15.80
2022-10-17T11:19:37.344Z,15.80
2022-10-17T11:22:33.142Z,15.80
2022-10-17T11:25:19.621Z,15.90
2022-10-17T11:27:46.559Z,15.90
2022-10-17T11:30:15.307Z,15.80
2022-10-17T11:32:54.398Z,15.90
2022-10-17T11:35:29.386Z,15.90
2022-10-17T11:38:46.099Z,15.90
2022-10-17T11:41:21.425Z,16.00
2022-10-17T11:43:54.606Z,16.00
2022-10-17T11:46:27.528Z,16.00
2022-10-17T11:49:16.121Z,16.00
2022-10-17T11:52:06.170Z,16.10
2022-10-17T11:54:45.085Z,16.00
2022-10-17T11:57:24.415Z,16.00
2022-10-17T11:59:51.408Z,16.00
2022-10-17T12:02:42.713Z,15.90
2022-10-17T12:05:28.648Z,15.90
2022-10-17T12:08:13.018Z,15.80
2022-10-17T12:10:58.697Z,15.80
2022-10-17T12:13:28.371Z,15.80
2022-10-17T12:15:56.825Z,15.80
2022-10-17T12:18:29.723Z,15.70
2022-10-17T12:21:00.308Z,15.80
2022-10-17T12:23:32.389Z,15.80
2022-10-17T12:26:05.610Z,15.70
2022-10-17T12:28:46.793Z,15.80
2022-10-17T12:31:17.689Z,15.80
2022-10-17T12:33:52.553Z,15.80
2022-10-17T12:36:22.178Z,15.80
2022-10-17T12:38:52.011Z,15.80
2022-10-17T12:41:42.312Z,15.80
2022-10-17T12:44:16.771Z,15.80
2022-10-17T12:46:52.370Z,15.80
2022-10-17T12:49:40.831Z,15.80
2022-10-17T12:52:31.769Z,15.80
2022-10-17T12:55:13.477Z,15.80
2022-10-17T12:58:08.221Z,15.80
2022-10-17T13:01:05.351Z,15.80
2022-10-17T13:03:44.654Z,15.70
2022-10-17T13:06:22.471Z,15.70
2022-10-17T13:09:01.049Z,15.70
2022-10-17T13:11:34.029Z,15.70
2022-10-17T13:14:04.539Z,15.60
2022-10-17T13:16:37.273Z,15.50
2022-10-17T13:19:18.346Z,15.50
2022-10-17T13:21:56.335Z,15.40
2022-10-17T13:24:33.931Z,15.30
2022-10-17T13:27:01.562Z,15.30
2022-10-17T13:29:30.939Z,15.20
2022-10-17T13:32:04.186Z,15.10
2022-10-17T13:34:32.620Z,15.10
2022-10-17T13:37:02.491Z,15.00
2022-10-17T13:39:54.539Z,15.10
2022-10-17T13:42:29.446Z,15.10
2022-10-17T13:44:58.493Z,15.10
2022-10-17T13:47:28.592Z,15.20
2022-10-17T13:49:57.670Z,15.30
2022-10-17T13:52:30.417Z,15.30
2022-10-17T13:55:17.538Z,15.30
2022-10-17T13:57:44.672Z,15.20
2022-10-17T14:00:20.150Z,15.10
2022-10-17T14:02:48.438Z,14.80
2022-10-17T14:05:21.051Z,14.70
2022-10-17T14:08:13.402Z,14.50
2022-10-17T14:10:43.374Z,14.30
2022-10-17T14:13:25.970Z,14.10
2022-10-17T14:15:55.386Z,14.00
2022-10-17T14:18:35.769Z,13.80
2022-10-17T14:21:40.583Z,13.60
2022-10-17T14:24:12.001Z,13.50
2022-10-17T14:26:48.352Z,13.30
2022-10-17T14:29:51.733Z,13.10
2022-10-17T14:32:19.746Z,13.00
2022-10-17T14:34:47.010Z,12.80
2022-10-17T14:37:32.255Z,12.70
2022-10-17T14:40:01.085Z,12.60
2022-10-17T14:42:28.189Z,12.40
2022-10-17T14:44:58.433Z,12.30
2022-10-17T14:47:42.842Z,12.20
2022-10-17T14:50:10.746Z,12.00
2022-10-17T14:52:39.125Z,11.80
2022-10-17T14:55:25.763Z,11.70
2022-10-17T14:57:52.757Z,11.50
2022-10-17T15:00:21.543Z,11.40
2022-10-17T15:02:49.904Z,11.20
2022-10-17T15:05:17.690Z,11.10
2022-10-17T15:07:44.702Z,10.90
2022-10-17T15:10:36.710Z,10.80
2022-10-17T15:13:26.740Z,10.60
2022-10-17T15:15:52.565Z,10.50
2022-10-17T15:18:19.770Z,10.40
2022-10-17T15:20:46.711Z,10.20
2022-10-17T15:23:13.599Z,10.10
2022-10-17T15:25:40.531Z,10.00
2022-10-17T15:28:08.089Z,9.80
2022-10-17T15:30:36.469Z,9.80
2022-10-17T15:33:03.552Z,9.60
2022-10-17T15:35:31.079Z,9.50
2022-10-17T15:37:57.975Z,9.50
2022-10-17T15:40:31.034Z,9.50
2022-10-17T15:42:58.277Z,9.50
2022-10-17T15:45:25.366Z,9.40
2022-10-17T15:50:36.899Z,9.30
2022-10-17T15:53:06.016Z,9.20
2022-10-17T15:55:33.004Z,9.20
2022-10-17T15:57:59.969Z,9.10
2022-10-17T16:00:26.935Z,9.00
2022-10-17T16:02:54.017Z,9.00
2022-10-17T16:05:23.720Z,8.90
2022-10-17T16:07:51.502Z,8.90
2022-10-17T16:10:19.471Z,8.90
2022-10-17T16:12:46.871Z,8.90
2022-10-17T16:15:23.036Z,8.80
2022-10-17T16:17:54.487Z,8.80
2022-10-17T16:20:22.016Z,8.80
2022-10-17T16:22:49.532Z,8.90
2022-10-17T16:25:22.533Z,8.90
2022-10-17T16:27:51.978Z,8.90
2022-10-17T16:30:19.730Z,8.90
2022-10-17T16:32:47.098Z,8.90
2022-10-17T16:35:20.129Z,9.00
2022-10-17T16:37:47.794Z,9.00
2022-10-17T16:40:15.474Z,9.00
2022-10-17T16:42:42.423Z,9.10
2022-10-17T16:45:11.296Z,9.10
2022-10-17T16:47:38.205Z,9.20
2022-10-17T16:50:05.354Z,9.20
2022-10-17T16:52:32.473Z,9.20
2022-10-17T16:54:59.591Z,9.30
2022-10-17T16:57:26.518Z,9.30
2022-10-17T16:59:53.461Z,9.40
2022-10-17T17:02:21.407Z,9.40
2022-10-17T17:04:48.577Z,9.40
2022-10-17T17:07:17.509Z,9.40
2022-10-17T17:09:44.406Z,9.50
2022-10-17T17:12:11.418Z,9.50
2022-10-17T17:14:39.078Z,9.60
2022-10-17T17:17:07.654Z,9.60
2022-10-17T17:19:39.195Z,9.60
2022-10-17T17:22:06.101Z,9.70
2022-10-17T17:24:33.240Z,9.70
2022-10-17T17:27:00.217Z,9.70
2022-10-17T17:29:27.240Z,9.70
2022-10-17T17:31:54.165Z,9.80
2022-10-17T17:34:21.078Z,9.80
2022-10-17T17:36:48.026Z,9.80
2022-10-17T17:39:15.823Z,9.80
2022-10-17T17:41:43.994Z,9.90
2022-10-17T17:44:15.684Z,9.90
2022-10-17T17:46:44.257Z,9.80
2022-10-17T17:49:11.729Z,9.80
2022-10-17T17:51:39.061Z,9.90
2022-10-17T17:54:06.040Z,9.80
2022-10-17T17:56:32.918Z,9.90
2022-10-17T17:59:02.317Z,9.80
2022-10-17T18:01:31.983Z,9.90
2022-10-17T18:03:59.739Z,9.90
2022-10-17T18:06:27.453Z,9.90
2022-10-17T18:08:57.847Z,9.90
2022-10-17T18:11:25.959Z,9.90
2022-10-17T18:14:04.096Z,9.90
2022-10-17T18:16:32.622Z,9.90
2022-10-17T18:19:05.759Z,9.90
2022-10-17T18:21:34.471Z,9.80
2022-10-17T18:24:02.021Z,9.80
2022-10-17T18:26:29.106Z,9.80
2022-10-17T18:28:56.681Z,9.80
2022-10-17T18:31:28.391Z,9.80
2022-10-17T18:33:57.386Z,9.80
2022-10-17T18:36:26.260Z,9.80
2022-10-17T18:38:54.396Z,9.80
2022-10-17T18:41:23.199Z,9.80
2022-10-17T18:43:51.448Z,9.80
2022-10-17T18:46:21.370Z,9.80
2022-10-17T18:48:49.711Z,9.80
2022-10-17T18:51:19.399Z,9.80
2022-10-17T18:53:49.738Z,9.80
2022-10-17T18:56:18.899Z,9.80
2022-10-17T18:58:46.725Z,9.80
2022-10-17T19:01:16.793Z,9.80
2022-10-17T19:03:45.691Z,9.80
2022-10-17T19:06:14.804Z,9.80
2022-10-17T19:08:42.910Z,9.80
2022-10-17T19:11:17.515Z,9.90
2022-10-17T19:16:16.424Z,9.90
2022-10-17T19:18:43.833Z,9.90
2022-10-17T19:21:11.833Z,9.90
2022-10-17T19:23:39.148Z,10.00
2022-10-17T19:26:11.974Z,10.00
2022-10-17T19:28:42.198Z,10.00
2022-10-17T19:31:11.984Z,10.00
2022-10-17T19:33:40.935Z,10.00
2022-10-17T19:36:11.397Z,10.00
2022-10-17T19:38:38.270Z,10.00
2022-10-17T19:41:10.697Z,10.00
2022-10-17T19:43:38.804Z,10.10
2022-10-17T19:46:08.455Z,10.10
2022-10-17T19:48:37.139Z,10.10
2022-10-17T19:51:05.317Z,10.10
2022-10-17T19:53:32.323Z,10.20
2022-10-17T19:55:59.817Z,10.20
2022-10-17T19:58:27.460Z,10.20
2022-10-17T20:00:58.256Z,10.20
2022-10-17T20:03:25.672Z,10.20
2022-10-17T20:05:52.658Z,10.20
2022-10-17T20:08:19.731Z,10.30
2022-10-17T20:10:46.789Z,10.30
2022-10-17T20:13:14.762Z,10.30
2022-10-17T20:15:41.731Z,10.30
2022-10-17T20:18:12.228Z,10.40
2022-10-17T20:20:39.205Z,10.40
2022-10-17T20:23:06.139Z,10.40
2022-10-17T20:25:34.596Z,10.50
2022-10-17T20:28:01.561Z,10.50
2022-10-17T20:30:28.504Z,10.50
2022-10-17T20:32:55.655Z,10.50
2022-10-17T20:35:23.088Z,10.50
2022-10-17T20:37:50.548Z,10.50
2022-10-17T20:40:34.150Z,10.50
2022-10-17T20:43:02.575Z,10.50
2022-10-17T20:45:43.780Z,10.50
2022-10-17T20:48:16.671Z,10.50
2022-10-17T20:50:44.236Z,10.50
2022-10-17T20:56:04.929Z,10.50
2022-10-17T20:58:31.886Z,10.50
2022-10-17T21:00:58.751Z,10.60
2022-10-17T21:03:26.687Z,10.50
2022-10-17T21:05:53.622Z,10.50
2022-10-17T21:08:20.538Z,10.50
2022-10-17T21:10:47.444Z,10.50
2022-10-17T21:13:14.420Z,10.50
2022-10-17T21:15:41.327Z,10.60
2022-10-17T21:18:08.229Z,10.60
2022-10-17T21:20:35.153Z,10.60
2022-10-17T21:23:02.119Z,10.60
2022-10-17T21:25:29.059Z,10.60
2022-10-17T21:27:55.983Z,10.50
2022-10-17T21:30:22.947Z,10.50
2022-10-17T21:32:54.335Z,10.50
2022-10-17T21:35:21.511Z,10.50
2022-10-17T21:37:48.425Z,10.50
2022-10-17T21:40:15.421Z,10.50
2022-10-17T21:42:42.379Z,10.60
2022-10-17T21:45:15.399Z,10.60
2022-10-17T21:47:55.036Z,10.60
2022-10-17T21:50:30.113Z,10.60
2022-10-17T21:52:58.702Z,10.50
2022-10-17T21:55:25.596Z,10.50
2022-10-17T21:57:52.493Z,10.40
2022-10-17T22:00:19.398Z,10.50
2022-10-17T22:02:46.270Z,10.50
2022-10-17T22:05:13.229Z,10.50
2022-10-17T22:07:40.173Z,10.40
2022-10-17T22:10:07.390Z,10.40
2022-10-17T22:12:34.321Z,10.40
2022-10-17T22:15:01.323Z,10.40
2022-10-17T22:17:28.418Z,10.40
2022-10-17T22:19:55.460Z,10.40
2022-10-17T22:22:22.409Z,10.40
2022-10-17T22:24:49.317Z,10.40
2022-10-17T22:27:16.202Z,10.40
2022-10-17T22:29:43.094Z,10.50
2022-10-17T22:32:10.574Z,10.50
2022-10-17T22:34:37.530Z,10.50
2022-10-17T22:37:04.418Z,10.50
2022-10-17T22:39:31.323Z,10.50
2022-10-17T22:41:58.351Z,10.50
2022-10-17T22:44:25.190Z,10.40
2022-10-17T22:46:52.077Z,10.40
2022-10-17T22:49:19.374Z,10.40
2022-10-17T22:51:46.267Z,10.50
2022-10-17T22:54:13.156Z,10.50
2022-10-17T22:56:40.148Z,10.50
2022-10-17T22:59:07.056Z,10.50
2022-10-17T23:01:34.363Z,10.50
2022-10-17T23:04:01.338Z,10.60
2022-10-17T23:06:28.255Z,10.60
2022-10-17T23:08:55.613Z,10.60
2022-10-17T23:11:22.535Z,10.60
2022-10-17T23:13:49.826Z,10.60
2022-10-17T23:16:16.759Z,10.60
2022-10-17T23:18:44.292Z,10.60
2022-10-17T23:21:11.804Z,10.70
2022-10-17T23:23:38.794Z,10.70
2022-10-17T23:26:11.114Z,10.70
2022-10-17T23:28:38.316Z,10.70
2022-10-17T23:31:11.267Z,10.80
2022-10-17T23:33:41.219Z,10.90
2022-10-17T23:36:10.692Z,10.90
2022-10-17T23:38:38.268Z,10.90
2022-10-17T23:41:05.324Z,10.90
2022-10-17T23:43:34.238Z,10.90
2022-10-17T23:46:02.405Z,10.90
2022-10-17T23:48:29.992Z,11.00
2022-10-17T23:50:57.378Z,11.00
2022-10-17T23:53:24.960Z,11.00
2022-10-17T23:55:52.265Z,11.10
2022-10-17T23:58:19.161Z,11.10
